Terminal Aerodrome Forecast
Issued by NWS

Home | Current Version | Previous Version | Text Only | Print | Product List | Glossary On
Versions: 1 2 3 4 5 6 7 8 9 10 11 12 13 14 15 16 17 18 19
863
FTUS46 KLOX 281723
TAFSBP
TAF
KSBP 281723Z 2818/2918 29012KT P6SM SCT025 SCT250
     FM282000 31020G28KT P6SM FEW035 SCT250
     FM290300 30010KT P6SM SCT250
     FM290800 31004KT P6SM SKC
     FM291000 31004KT P6SM BKN012=

USA.gov is the U.S. government's official web portal to all federal, state and local government web resources and services.